sensor_id;sensor_type;location;lat;lon;timestamp;P1;durP1;ratioP1;P2;durP2;ratioP2
4055;SDS011;2043;52.184;8.690;2023-07-24T00:02:25;7.10;;;4.73;;
4055;SDS011;2043;52.184;8.690;2023-07-24T00:04:52;9.07;;;5.30;;
4055;SDS011;2043;52.184;8.690;2023-07-24T00:07:19;6.17;;;4.70;;
4055;SDS011;2043;52.184;8.690;2023-07-24T00:09:45;7.83;;;5.10;;
4055;SDS011;2043;52.184;8.690;2023-07-24T00:12:12;6.87;;;4.80;;
4055;SDS011;2043;52.184;8.690;2023-07-24T00:14:39;10.10;;;5.17;;
4055;SDS011;2043;52.184;8.690;2023-07-24T00:17:06;7.47;;;4.93;;
4055;SDS011;2043;52.184;8.690;2023-07-24T00:19:33;7.20;;;5.23;;
4055;SDS011;2043;52.184;8.690;2023-07-24T00:21:59;9.33;;;6.03;;
4055;SDS011;2043;52.184;8.690;2023-07-24T00:24:26;6.90;;;5.20;;
4055;SDS011;2043;52.184;8.690;2023-07-24T00:26:53;30.23;;;5.97;;
4055;SDS011;2043;52.184;8.690;2023-07-24T00:29:20;8.50;;;5.90;;
4055;SDS011;2043;52.184;8.690;2023-07-24T00:31:47;9.27;;;6.43;;
4055;SDS011;2043;52.184;8.690;2023-07-24T00:34:14;8.40;;;6.30;;
4055;SDS011;2043;52.184;8.690;2023-07-24T00:36:40;9.20;;;6.60;;
4055;SDS011;2043;52.184;8.690;2023-07-24T00:39:07;7.20;;;5.90;;
4055;SDS011;2043;52.184;8.690;2023-07-24T00:41:34;9.10;;;6.73;;
4055;SDS011;2043;52.184;8.690;2023-07-24T00:44:01;7.90;;;6.30;;
4055;SDS011;2043;52.184;8.690;2023-07-24T00:46:28;16.40;;;7.30;;
4055;SDS011;2043;52.184;8.690;2023-07-24T00:48:59;8.80;;;7.00;;
4055;SDS011;2043;52.184;8.690;2023-07-24T00:51:27;11.20;;;7.90;;
4055;SDS011;2043;52.184;8.690;2023-07-24T00:53:55;9.60;;;7.73;;
4055;SDS011;2043;52.184;8.690;2023-07-24T00:56:23;13.63;;;8.23;;
4055;SDS011;2043;52.184;8.690;2023-07-24T00:58:49;10.23;;;7.83;;
4055;SDS011;2043;52.184;8.690;2023-07-24T01:01:17;10.47;;;6.90;;
4055;SDS011;2043;52.184;8.690;2023-07-24T01:03:44;12.03;;;7.40;;
4055;SDS011;2043;52.184;8.690;2023-07-24T01:06:11;10.37;;;6.90;;
4055;SDS011;2043;52.184;8.690;2023-07-24T01:08:38;13.00;;;8.27;;
4055;SDS011;2043;52.184;8.690;2023-07-24T01:11:49;9.67;;;7.10;;
4055;SDS011;2043;52.184;8.690;2023-07-24T01:14:04;13.73;;;7.80;;
4055;SDS011;2043;52.184;8.690;2023-07-24T01:16:40;12.27;;;7.33;;
4055;SDS011;2043;52.184;8.690;2023-07-24T01:19:15;17.77;;;7.10;;
4055;SDS011;2043;52.184;8.690;2023-07-24T01:21:44;10.73;;;7.30;;
4055;SDS011;2043;52.184;8.690;2023-07-24T01:24:33;10.60;;;7.23;;
4055;SDS011;2043;52.184;8.690;2023-07-24T01:27:08;15.60;;;7.90;;
4055;SDS011;2043;52.184;8.690;2023-07-24T01:29:35;10.23;;;7.33;;
4055;SDS011;2043;52.184;8.690;2023-07-24T01:32:02;10.70;;;7.73;;
4055;SDS011;2043;52.184;8.690;2023-07-24T01:34:29;9.53;;;6.93;;
4055;SDS011;2043;52.184;8.690;2023-07-24T01:36:56;11.97;;;6.90;;
4055;SDS011;2043;52.184;8.690;2023-07-24T01:39:23;11.73;;;7.03;;
4055;SDS011;2043;52.184;8.690;2023-07-24T01:41:50;10.67;;;7.13;;
4055;SDS011;2043;52.184;8.690;2023-07-24T01:44:17;14.50;;;7.20;;
4055;SDS011;2043;52.184;8.690;2023-07-24T01:46:44;11.80;;;6.47;;
4055;SDS011;2043;52.184;8.690;2023-07-24T01:49:11;9.97;;;6.73;;
4055;SDS011;2043;52.184;8.690;2023-07-24T01:51:38;13.73;;;6.40;;
4055;SDS011;2043;52.184;8.690;2023-07-24T01:54:04;12.70;;;6.67;;
4055;SDS011;2043;52.184;8.690;2023-07-24T01:56:32;13.00;;;5.87;;
4055;SDS011;2043;52.184;8.690;2023-07-24T01:59:00;8.13;;;5.03;;
4055;SDS011;2043;52.184;8.690;2023-07-24T02:01:26;14.23;;;5.70;;
4055;SDS011;2043;52.184;8.690;2023-07-24T02:03:53;10.50;;;4.87;;
4055;SDS011;2043;52.184;8.690;2023-07-24T02:06:20;10.93;;;4.93;;
4055;SDS011;2043;52.184;8.690;2023-07-24T02:08:47;9.97;;;5.30;;
4055;SDS011;2043;52.184;8.690;2023-07-24T02:11:15;11.20;;;4.40;;
4055;SDS011;2043;52.184;8.690;2023-07-24T02:13:45;8.57;;;5.03;;
4055;SDS011;2043;52.184;8.690;2023-07-24T02:16:12;14.23;;;4.63;;
4055;SDS011;2043;52.184;8.690;2023-07-24T02:18:41;12.20;;;4.77;;
4055;SDS011;2043;52.184;8.690;2023-07-24T02:21:09;8.67;;;4.60;;
4055;SDS011;2043;52.184;8.690;2023-07-24T02:23:35;13.33;;;5.87;;
4055;SDS011;2043;52.184;8.690;2023-07-24T02:26:02;8.83;;;4.57;;
4055;SDS011;2043;52.184;8.690;2023-07-24T02:28:29;12.07;;;5.13;;
4055;SDS011;2043;52.184;8.690;2023-07-24T02:30:56;10.47;;;4.50;;
4055;SDS011;2043;52.184;8.690;2023-07-24T02:33:23;11.50;;;4.60;;
4055;SDS011;2043;52.184;8.690;2023-07-24T02:35:51;8.77;;;5.00;;
4055;SDS011;2043;52.184;8.690;2023-07-24T02:38:18;7.60;;;4.10;;
4055;SDS011;2043;52.184;8.690;2023-07-24T02:40:45;7.97;;;4.50;;
4055;SDS011;2043;52.184;8.690;2023-07-24T02:43:12;9.20;;;4.80;;
4055;SDS011;2043;52.184;8.690;2023-07-24T02:45:39;13.90;;;4.73;;
4055;SDS011;2043;52.184;8.690;2023-07-24T02:48:06;8.60;;;4.50;;
4055;SDS011;2043;52.184;8.690;2023-07-24T02:50:33;11.80;;;4.50;;
4055;SDS011;2043;52.184;8.690;2023-07-24T02:53:00;10.67;;;4.67;;
4055;SDS011;2043;52.184;8.690;2023-07-24T02:55:27;12.37;;;5.07;;
4055;SDS011;2043;52.184;8.690;2023-07-24T02:57:53;9.63;;;4.63;;
4055;SDS011;2043;52.184;8.690;2023-07-24T03:00:21;10.80;;;4.97;;
4055;SDS011;2043;52.184;8.690;2023-07-24T03:02:47;14.90;;;5.20;;
4055;SDS011;2043;52.184;8.690;2023-07-24T03:05:14;9.90;;;4.70;;
4055;SDS011;2043;52.184;8.690;2023-07-24T03:07:41;10.43;;;4.77;;
4055;SDS011;2043;52.184;8.690;2023-07-24T03:10:08;14.40;;;5.27;;
4055;SDS011;2043;52.184;8.690;2023-07-24T03:12:35;8.93;;;4.40;;
4055;SDS011;2043;52.184;8.690;2023-07-24T03:15:02;8.30;;;4.17;;
4055;SDS011;2043;52.184;8.690;2023-07-24T03:17:29;8.20;;;4.33;;
4055;SDS011;2043;52.184;8.690;2023-07-24T03:19:55;8.07;;;4.70;;
4055;SDS011;2043;52.184;8.690;2023-07-24T03:22:22;9.13;;;4.83;;
4055;SDS011;2043;52.184;8.690;2023-07-24T03:24:49;9.93;;;4.50;;
4055;SDS011;2043;52.184;8.690;2023-07-24T03:27:16;8.13;;;4.60;;
4055;SDS011;2043;52.184;8.690;2023-07-24T03:29:43;6.87;;;4.43;;
4055;SDS011;2043;52.184;8.690;2023-07-24T03:32:09;6.57;;;4.20;;
4055;SDS011;2043;52.184;8.690;2023-07-24T03:34:36;7.57;;;4.20;;
4055;SDS011;2043;52.184;8.690;2023-07-24T03:37:03;6.83;;;4.50;;
4055;SDS011;2043;52.184;8.690;2023-07-24T03:39:30;12.43;;;4.90;;
4055;SDS011;2043;52.184;8.690;2023-07-24T03:41:56;9.70;;;4.80;;
4055;SDS011;2043;52.184;8.690;2023-07-24T03:44:23;7.53;;;4.20;;
4055;SDS011;2043;52.184;8.690;2023-07-24T03:46:51;7.97;;;4.53;;
4055;SDS011;2043;52.184;8.690;2023-07-24T03:49:17;11.27;;;5.03;;
4055;SDS011;2043;52.184;8.690;2023-07-24T03:51:44;9.43;;;4.30;;
4055;SDS011;2043;52.184;8.690;2023-07-24T03:54:11;13.03;;;5.20;;
4055;SDS011;2043;52.184;8.690;2023-07-24T03:56:38;11.63;;;4.37;;
4055;SDS011;2043;52.184;8.690;2023-07-24T03:59:05;12.23;;;4.97;;
4055;SDS011;2043;52.184;8.690;2023-07-24T04:01:32;12.43;;;4.07;;
4055;SDS011;2043;52.184;8.690;2023-07-24T04:03:59;8.23;;;4.40;;
4055;SDS011;2043;52.184;8.690;2023-07-24T04:06:26;13.80;;;4.90;;
4055;SDS011;2043;52.184;8.690;2023-07-24T04:08:53;7.90;;;4.03;;
4055;SDS011;2043;52.184;8.690;2023-07-24T04:11:20;9.23;;;4.90;;
4055;SDS011;2043;52.184;8.690;2023-07-24T04:13:47;14.20;;;4.73;;
4055;SDS011;2043;52.184;8.690;2023-07-24T04:16:13;6.60;;;4.20;;
4055;SDS011;2043;52.184;8.690;2023-07-24T04:18:40;11.33;;;4.23;;
4055;SDS011;2043;52.184;8.690;2023-07-24T04:21:07;11.20;;;4.00;;
4055;SDS011;2043;52.184;8.690;2023-07-24T04:23:34;8.30;;;4.57;;
4055;SDS011;2043;52.184;8.690;2023-07-24T04:26:02;7.80;;;3.77;;
4055;SDS011;2043;52.184;8.690;2023-07-24T04:28:29;7.30;;;3.70;;
4055;SDS011;2043;52.184;8.690;2023-07-24T04:30:59;6.03;;;3.80;;
4055;SDS011;2043;52.184;8.690;2023-07-24T04:33:27;10.57;;;4.20;;
4055;SDS011;2043;52.184;8.690;2023-07-24T04:35:55;7.00;;;3.60;;
4055;SDS011;2043;52.184;8.690;2023-07-24T04:38:22;7.53;;;3.97;;
4055;SDS011;2043;52.184;8.690;2023-07-24T04:40:49;8.83;;;3.33;;
4055;SDS011;2043;52.184;8.690;2023-07-24T04:43:16;10.93;;;4.10;;
4055;SDS011;2043;52.184;8.690;2023-07-24T04:45:42;9.20;;;4.20;;
4055;SDS011;2043;52.184;8.690;2023-07-24T04:48:09;7.83;;;4.10;;
4055;SDS011;2043;52.184;8.690;2023-07-24T04:50:36;10.67;;;4.20;;
4055;SDS011;2043;52.184;8.690;2023-07-24T04:53:02;11.70;;;4.10;;
4055;SDS011;2043;52.184;8.690;2023-07-24T04:55:29;6.83;;;4.00;;
4055;SDS011;2043;52.184;8.690;2023-07-24T04:57:56;7.40;;;4.10;;
4055;SDS011;2043;52.184;8.690;2023-07-24T05:00:23;8.97;;;4.17;;
4055;SDS011;2043;52.184;8.690;2023-07-24T05:02:50;10.03;;;4.30;;
4055;SDS011;2043;52.184;8.690;2023-07-24T05:05:16;8.80;;;4.00;;
4055;SDS011;2043;52.184;8.690;2023-07-24T05:07:43;6.87;;;4.40;;
4055;SDS011;2043;52.184;8.690;2023-07-24T05:10:10;10.00;;;3.70;;
4055;SDS011;2043;52.184;8.690;2023-07-24T05:12:37;7.20;;;4.37;;
4055;SDS011;2043;52.184;8.690;2023-07-24T05:15:06;8.00;;;4.30;;
4055;SDS011;2043;52.184;8.690;2023-07-24T05:17:33;7.27;;;3.80;;
4055;SDS011;2043;52.184;8.690;2023-07-24T05:20:00;7.70;;;4.03;;
4055;SDS011;2043;52.184;8.690;2023-07-24T05:22:27;13.63;;;4.23;;
4055;SDS011;2043;52.184;8.690;2023-07-24T05:24:54;8.63;;;4.67;;
4055;SDS011;2043;52.184;8.690;2023-07-24T05:27:20;6.40;;;3.70;;
4055;SDS011;2043;52.184;8.690;2023-07-24T05:29:47;12.90;;;4.03;;
4055;SDS011;2043;52.184;8.690;2023-07-24T05:32:14;9.57;;;4.60;;
4055;SDS011;2043;52.184;8.690;2023-07-24T05:34:40;7.70;;;4.73;;
4055;SDS011;2043;52.184;8.690;2023-07-24T05:37:11;11.47;;;4.47;;
4055;SDS011;2043;52.184;8.690;2023-07-24T05:39:38;12.80;;;5.00;;
4055;SDS011;2043;52.184;8.690;2023-07-24T05:42:04;12.23;;;5.37;;
4055;SDS011;2043;52.184;8.690;2023-07-24T05:44:31;9.53;;;5.40;;
4055;SDS011;2043;52.184;8.690;2023-07-24T05:46:59;11.90;;;5.97;;
4055;SDS011;2043;52.184;8.690;2023-07-24T05:49:26;16.90;;;6.03;;
4055;SDS011;2043;52.184;8.690;2023-07-24T05:51:52;11.60;;;5.93;;
4055;SDS011;2043;52.184;8.690;2023-07-24T05:54:20;11.97;;;5.60;;
4055;SDS011;2043;52.184;8.690;2023-07-24T05:56:47;11.33;;;5.10;;
4055;SDS011;2043;52.184;8.690;2023-07-24T05:59:13;12.50;;;5.40;;
4055;SDS011;2043;52.184;8.690;2023-07-24T06:01:40;17.37;;;5.80;;
4055;SDS011;2043;52.184;8.690;2023-07-24T06:04:07;23.77;;;5.77;;
4055;SDS011;2043;52.184;8.690;2023-07-24T06:06:34;8.97;;;5.23;;
4055;SDS011;2043;52.184;8.690;2023-07-24T06:09:02;8.97;;;5.43;;
4055;SDS011;2043;52.184;8.690;2023-07-24T06:11:29;9.83;;;5.70;;
4055;SDS011;2043;52.184;8.690;2023-07-24T06:13:56;9.93;;;5.63;;
4055;SDS011;2043;52.184;8.690;2023-07-24T06:16:22;13.60;;;6.97;;
4055;SDS011;2043;52.184;8.690;2023-07-24T06:18:49;22.40;;;5.50;;
4055;SDS011;2043;52.184;8.690;2023-07-24T06:21:16;19.30;;;5.90;;
4055;SDS011;2043;52.184;8.690;2023-07-24T06:23:43;11.47;;;6.30;;
4055;SDS011;2043;52.184;8.690;2023-07-24T06:26:09;9.77;;;6.07;;
4055;SDS011;2043;52.184;8.690;2023-07-24T06:28:36;11.53;;;5.90;;
4055;SDS011;2043;52.184;8.690;2023-07-24T06:31:03;9.53;;;5.90;;
4055;SDS011;2043;52.184;8.690;2023-07-24T06:33:30;7.77;;;5.37;;
4055;SDS011;2043;52.184;8.690;2023-07-24T06:35:56;11.90;;;6.30;;
4055;SDS011;2043;52.184;8.690;2023-07-24T06:38:23;12.30;;;5.97;;
4055;SDS011;2043;52.184;8.690;2023-07-24T06:40:50;9.20;;;5.23;;
4055;SDS011;2043;52.184;8.690;2023-07-24T06:43:17;8.20;;;4.60;;
4055;SDS011;2043;52.184;8.690;2023-07-24T06:45:43;8.87;;;5.10;;
4055;SDS011;2043;52.184;8.690;2023-07-24T06:48:10;6.80;;;4.70;;
4055;SDS011;2043;52.184;8.690;2023-07-24T06:50:37;12.80;;;5.17;;
4055;SDS011;2043;52.184;8.690;2023-07-24T06:53:04;10.60;;;5.47;;
4055;SDS011;2043;52.184;8.690;2023-07-24T06:55:31;9.33;;;5.33;;
4055;SDS011;2043;52.184;8.690;2023-07-24T06:57:57;19.60;;;10.10;;
4055;SDS011;2043;52.184;8.690;2023-07-24T07:00:24;10.57;;;6.27;;
4055;SDS011;2043;52.184;8.690;2023-07-24T07:02:51;8.40;;;5.30;;
4055;SDS011;2043;52.184;8.690;2023-07-24T07:05:18;8.00;;;5.20;;
4055;SDS011;2043;52.184;8.690;2023-07-24T07:07:45;6.77;;;4.80;;
4055;SDS011;2043;52.184;8.690;2023-07-24T07:10:11;8.30;;;5.00;;
4055;SDS011;2043;52.184;8.690;2023-07-24T07:12:38;7.87;;;4.57;;
4055;SDS011;2043;52.184;8.690;2023-07-24T07:15:05;8.83;;;5.00;;
4055;SDS011;2043;52.184;8.690;2023-07-24T07:17:32;11.20;;;5.30;;
4055;SDS011;2043;52.184;8.690;2023-07-24T07:19:59;9.00;;;5.07;;
4055;SDS011;2043;52.184;8.690;2023-07-24T07:22:26;8.60;;;4.90;;
4055;SDS011;2043;52.184;8.690;2023-07-24T07:24:52;8.77;;;5.07;;
4055;SDS011;2043;52.184;8.690;2023-07-24T07:27:19;7.80;;;4.97;;
4055;SDS011;2043;52.184;8.690;2023-07-24T07:29:46;11.70;;;5.80;;
4055;SDS011;2043;52.184;8.690;2023-07-24T07:32:13;10.03;;;5.60;;
4055;SDS011;2043;52.184;8.690;2023-07-24T07:34:39;9.53;;;5.80;;
4055;SDS011;2043;52.184;8.690;2023-07-24T07:37:06;9.23;;;6.40;;
4055;SDS011;2043;52.184;8.690;2023-07-24T07:39:33;9.97;;;6.13;;
4055;SDS011;2043;52.184;8.690;2023-07-24T07:42:00;9.73;;;6.50;;
4055;SDS011;2043;52.184;8.690;2023-07-24T07:44:33;11.03;;;7.00;;
4055;SDS011;2043;52.184;8.690;2023-07-24T07:46:59;10.17;;;6.30;;
4055;SDS011;2043;52.184;8.690;2023-07-24T07:49:26;11.97;;;7.20;;
4055;SDS011;2043;52.184;8.690;2023-07-24T07:51:56;12.20;;;7.47;;
4055;SDS011;2043;52.184;8.690;2023-07-24T07:54:23;11.13;;;6.80;;
4055;SDS011;2043;52.184;8.690;2023-07-24T07:56:50;10.17;;;7.57;;
4055;SDS011;2043;52.184;8.690;2023-07-24T07:59:16;13.10;;;8.30;;
4055;SDS011;2043;52.184;8.690;2023-07-24T08:01:43;11.13;;;7.83;;
4055;SDS011;2043;52.184;8.690;2023-07-24T08:04:11;13.63;;;7.33;;
4055;SDS011;2043;52.184;8.690;2023-07-24T08:06:38;12.47;;;8.17;;
4055;SDS011;2043;52.184;8.690;2023-07-24T08:09:05;18.93;;;10.57;;
4055;SDS011;2043;52.184;8.690;2023-07-24T08:11:32;15.23;;;8.23;;
4055;SDS011;2043;52.184;8.690;2023-07-24T08:13:58;14.27;;;8.27;;
4055;SDS011;2043;52.184;8.690;2023-07-24T08:16:25;11.70;;;8.03;;
4055;SDS011;2043;52.184;8.690;2023-07-24T08:18:52;16.33;;;8.63;;
4055;SDS011;2043;52.184;8.690;2023-07-24T08:21:23;10.70;;;7.90;;
4055;SDS011;2043;52.184;8.690;2023-07-24T08:23:50;14.60;;;8.50;;
4055;SDS011;2043;52.184;8.690;2023-07-24T08:26:16;13.37;;;8.10;;
4055;SDS011;2043;52.184;8.690;2023-07-24T08:28:43;15.27;;;8.67;;
4055;SDS011;2043;52.184;8.690;2023-07-24T08:31:10;12.07;;;7.87;;
4055;SDS011;2043;52.184;8.690;2023-07-24T08:33:37;15.23;;;8.20;;
4055;SDS011;2043;52.184;8.690;2023-07-24T08:36:05;13.23;;;8.67;;
4055;SDS011;2043;52.184;8.690;2023-07-24T08:38:34;18.93;;;8.13;;
4055;SDS011;2043;52.184;8.690;2023-07-24T08:41:05;11.30;;;7.90;;
4055;SDS011;2043;52.184;8.690;2023-07-24T08:43:37;13.93;;;8.00;;
4055;SDS011;2043;52.184;8.690;2023-07-24T08:46:06;11.20;;;9.10;;
4055;SDS011;2043;52.184;8.690;2023-07-24T08:48:34;20.03;;;8.57;;
4055;SDS011;2043;52.184;8.690;2023-07-24T08:51:11;12.43;;;8.57;;
4055;SDS011;2043;52.184;8.690;2023-07-24T08:53:41;14.60;;;8.90;;
4055;SDS011;2043;52.184;8.690;2023-07-24T08:56:09;11.27;;;8.30;;
4055;SDS011;2043;52.184;8.690;2023-07-24T08:58:38;15.87;;;7.93;;
4055;SDS011;2043;52.184;8.690;2023-07-24T09:01:05;15.43;;;8.17;;
4055;SDS011;2043;52.184;8.690;2023-07-24T09:03:33;11.97;;;7.73;;
4055;SDS011;2043;52.184;8.690;2023-07-24T09:06:00;11.17;;;7.70;;
4055;SDS011;2043;52.184;8.690;2023-07-24T09:08:37;10.37;;;8.00;;
4055;SDS011;2043;52.184;8.690;2023-07-24T09:11:06;12.27;;;8.30;;
4055;SDS011;2043;52.184;8.690;2023-07-24T09:13:37;11.03;;;8.00;;
4055;SDS011;2043;52.184;8.690;2023-07-24T09:16:06;10.97;;;7.97;;
4055;SDS011;2043;52.184;8.690;2023-07-24T09:18:40;12.07;;;7.50;;
4055;SDS011;2043;52.184;8.690;2023-07-24T09:21:10;15.37;;;7.50;;
4055;SDS011;2043;52.184;8.690;2023-07-24T09:23:38;13.73;;;7.03;;
4055;SDS011;2043;52.184;8.690;2023-07-24T09:26:09;11.23;;;7.43;;
4055;SDS011;2043;52.184;8.690;2023-07-24T09:28:36;10.07;;;6.57;;
4055;SDS011;2043;52.184;8.690;2023-07-24T09:31:03;11.87;;;7.13;;
4055;SDS011;2043;52.184;8.690;2023-07-24T09:33:34;12.87;;;8.03;;
4055;SDS011;2043;52.184;8.690;2023-07-24T09:36:10;10.67;;;7.60;;
4055;SDS011;2043;52.184;8.690;2023-07-24T09:38:37;11.87;;;7.70;;
4055;SDS011;2043;52.184;8.690;2023-07-24T09:41:04;15.50;;;8.20;;
4055;SDS011;2043;52.184;8.690;2023-07-24T09:43:32;10.63;;;7.67;;
4055;SDS011;2043;52.184;8.690;2023-07-24T09:46:06;10.03;;;7.60;;
4055;SDS011;2043;52.184;8.690;2023-07-24T09:48:35;13.07;;;7.90;;
4055;SDS011;2043;52.184;8.690;2023-07-24T09:51:23;10.50;;;7.60;;
4055;SDS011;2043;52.184;8.690;2023-07-24T09:56:21;13.07;;;8.37;;
4055;SDS011;2043;52.184;8.690;2023-07-24T09:59:09;11.47;;;8.10;;
4055;SDS011;2043;52.184;8.690;2023-07-24T10:01:36;9.70;;;7.70;;
4055;SDS011;2043;52.184;8.690;2023-07-24T10:04:04;14.33;;;7.23;;
4055;SDS011;2043;52.184;8.690;2023-07-24T10:06:32;18.93;;;7.57;;
4055;SDS011;2043;52.184;8.690;2023-07-24T10:09:00;10.13;;;7.47;;
4055;SDS011;2043;52.184;8.690;2023-07-24T10:11:27;17.43;;;6.90;;
4055;SDS011;2043;52.184;8.690;2023-07-24T10:13:54;8.30;;;5.97;;
4055;SDS011;2043;52.184;8.690;2023-07-24T10:16:22;8.40;;;4.77;;
4055;SDS011;2043;52.184;8.690;2023-07-24T10:18:48;8.03;;;4.20;;
4055;SDS011;2043;52.184;8.690;2023-07-24T10:21:16;7.60;;;4.00;;
4055;SDS011;2043;52.184;8.690;2023-07-24T10:23:43;5.90;;;3.53;;
4055;SDS011;2043;52.184;8.690;2023-07-24T10:26:13;5.80;;;3.80;;
4055;SDS011;2043;52.184;8.690;2023-07-24T10:28:42;5.80;;;3.93;;
4055;SDS011;2043;52.184;8.690;2023-07-24T10:31:24;6.20;;;3.73;;
4055;SDS011;2043;52.184;8.690;2023-07-24T10:34:03;5.73;;;3.57;;
4055;SDS011;2043;52.184;8.690;2023-07-24T10:36:34;5.03;;;3.70;;
4055;SDS011;2043;52.184;8.690;2023-07-24T10:39:02;5.33;;;3.40;;
4055;SDS011;2043;52.184;8.690;2023-07-24T10:41:38;4.97;;;2.93;;
4055;SDS011;2043;52.184;8.690;2023-07-24T10:44:06;5.00;;;3.20;;
4055;SDS011;2043;52.184;8.690;2023-07-24T10:46:39;5.80;;;3.60;;
4055;SDS011;2043;52.184;8.690;2023-07-24T10:49:07;5.20;;;3.13;;
4055;SDS011;2043;52.184;8.690;2023-07-24T10:51:35;3.73;;;2.23;;
4055;SDS011;2043;52.184;8.690;2023-07-24T10:54:04;3.43;;;2.27;;
4055;SDS011;2043;52.184;8.690;2023-07-24T10:56:31;4.07;;;2.10;;
4055;SDS011;2043;52.184;8.690;2023-07-24T10:59:05;3.83;;;2.20;;
4055;SDS011;2043;52.184;8.690;2023-07-24T11:01:32;5.80;;;2.50;;
4055;SDS011;2043;52.184;8.690;2023-07-24T11:04:00;3.53;;;2.23;;
4055;SDS011;2043;52.184;8.690;2023-07-24T11:06:27;5.30;;;2.50;;
4055;SDS011;2043;52.184;8.690;2023-07-24T11:08:55;4.13;;;2.30;;
4055;SDS011;2043;52.184;8.690;2023-07-24T11:11:33;3.90;;;2.17;;
4055;SDS011;2043;52.184;8.690;2023-07-24T11:14:02;6.40;;;2.63;;
4055;SDS011;2043;52.184;8.690;2023-07-24T11:16:29;3.83;;;2.47;;
4055;SDS011;2043;52.184;8.690;2023-07-24T11:18:57;4.03;;;2.10;;
4055;SDS011;2043;52.184;8.690;2023-07-24T11:21:24;4.60;;;2.20;;
4055;SDS011;2043;52.184;8.690;2023-07-24T11:23:52;3.60;;;2.30;;
4055;SDS011;2043;52.184;8.690;2023-07-24T11:26:21;4.17;;;2.30;;
4055;SDS011;2043;52.184;8.690;2023-07-24T11:28:49;3.73;;;2.33;;
4055;SDS011;2043;52.184;8.690;2023-07-24T11:31:17;4.60;;;2.30;;
4055;SDS011;2043;52.184;8.690;2023-07-24T11:33:48;5.80;;;2.37;;
4055;SDS011;2043;52.184;8.690;2023-07-24T11:36:15;4.20;;;2.50;;
4055;SDS011;2043;52.184;8.690;2023-07-24T11:38:44;16.23;;;2.53;;
4055;SDS011;2043;52.184;8.690;2023-07-24T11:41:11;5.50;;;2.70;;
4055;SDS011;2043;52.184;8.690;2023-07-24T11:43:45;4.27;;;2.70;;
4055;SDS011;2043;52.184;8.690;2023-07-24T11:46:22;3.93;;;2.33;;
4055;SDS011;2043;52.184;8.690;2023-07-24T11:48:50;4.30;;;2.80;;
4055;SDS011;2043;52.184;8.690;2023-07-24T11:51:19;6.03;;;2.83;;
4055;SDS011;2043;52.184;8.690;2023-07-24T11:53:47;5.17;;;3.00;;
4055;SDS011;2043;52.184;8.690;2023-07-24T11:56:14;5.27;;;3.67;;
4055;SDS011;2043;52.184;8.690;2023-07-24T11:58:42;5.10;;;3.27;;
4055;SDS011;2043;52.184;8.690;2023-07-24T12:01:09;4.40;;;2.97;;
4055;SDS011;2043;52.184;8.690;2023-07-24T12:03:38;6.20;;;3.23;;
4055;SDS011;2043;52.184;8.690;2023-07-24T12:06:13;5.70;;;3.53;;
4055;SDS011;2043;52.184;8.690;2023-07-24T12:08:41;4.93;;;3.40;;
4055;SDS011;2043;52.184;8.690;2023-07-24T12:11:17;8.03;;;3.77;;
4055;SDS011;2043;52.184;8.690;2023-07-24T12:13:44;5.83;;;4.00;;
4055;SDS011;2043;52.184;8.690;2023-07-24T12:16:11;11.47;;;4.87;;
4055;SDS011;2043;52.184;8.690;2023-07-24T12:18:38;5.70;;;4.40;;
4055;SDS011;2043;52.184;8.690;2023-07-24T12:21:05;7.70;;;5.40;;
4055;SDS011;2043;52.184;8.690;2023-07-24T12:23:32;9.00;;;5.33;;
4055;SDS011;2043;52.184;8.690;2023-07-24T12:25:59;7.00;;;5.70;;
4055;SDS011;2043;52.184;8.690;2023-07-24T12:28:25;7.67;;;5.50;;
4055;SDS011;2043;52.184;8.690;2023-07-24T12:30:52;6.83;;;5.60;;
4055;SDS011;2043;52.184;8.690;2023-07-24T12:33:19;6.77;;;4.90;;
4055;SDS011;2043;52.184;8.690;2023-07-24T12:35:50;8.07;;;5.30;;
4055;SDS011;2043;52.184;8.690;2023-07-24T12:38:17;7.37;;;5.73;;
4055;SDS011;2043;52.184;8.690;2023-07-24T12:40:45;8.23;;;5.50;;
4055;SDS011;2043;52.184;8.690;2023-07-24T12:43:11;7.10;;;6.20;;
4055;SDS011;2043;52.184;8.690;2023-07-24T12:45:38;10.17;;;6.30;;
4055;SDS011;2043;52.184;8.690;2023-07-24T12:48:05;8.00;;;6.13;;
4055;SDS011;2043;52.184;8.690;2023-07-24T12:50:32;7.90;;;6.87;;
4055;SDS011;2043;52.184;8.690;2023-07-24T12:52:59;9.10;;;6.93;;
4055;SDS011;2043;52.184;8.690;2023-07-24T12:55:30;10.97;;;7.13;;
4055;SDS011;2043;52.184;8.690;2023-07-24T12:57:57;8.70;;;6.63;;
4055;SDS011;2043;52.184;8.690;2023-07-24T13:00:23;9.70;;;7.70;;
4055;SDS011;2043;52.184;8.690;2023-07-24T13:02:51;8.30;;;6.70;;
4055;SDS011;2043;52.184;8.690;2023-07-24T13:05:18;7.50;;;6.57;;
4055;SDS011;2043;52.184;8.690;2023-07-24T13:07:44;15.03;;;8.00;;
4055;SDS011;2043;52.184;8.690;2023-07-24T13:10:12;10.83;;;7.60;;
4055;SDS011;2043;52.184;8.690;2023-07-24T13:12:39;11.17;;;8.00;;
4055;SDS011;2043;52.184;8.690;2023-07-24T13:15:06;9.60;;;7.03;;
4055;SDS011;2043;52.184;8.690;2023-07-24T13:17:33;11.13;;;8.27;;
4055;SDS011;2043;52.184;8.690;2023-07-24T13:19:59;9.53;;;7.20;;
4055;SDS011;2043;52.184;8.690;2023-07-24T13:22:26;10.80;;;7.83;;
4055;SDS011;2043;52.184;8.690;2023-07-24T13:24:53;9.97;;;7.20;;
4055;SDS011;2043;52.184;8.690;2023-07-24T13:27:20;14.13;;;8.27;;
4055;SDS011;2043;52.184;8.690;2023-07-24T13:29:47;10.80;;;7.33;;
4055;SDS011;2043;52.184;8.690;2023-07-24T13:32:14;13.43;;;7.83;;
4055;SDS011;2043;52.184;8.690;2023-07-24T13:34:42;11.47;;;8.10;;
4055;SDS011;2043;52.184;8.690;2023-07-24T13:37:09;14.00;;;7.70;;
4055;SDS011;2043;52.184;8.690;2023-07-24T13:39:35;10.30;;;7.77;;
4055;SDS011;2043;52.184;8.690;2023-07-24T13:42:02;11.00;;;8.00;;
4055;SDS011;2043;52.184;8.690;2023-07-24T13:44:29;13.03;;;9.10;;
4055;SDS011;2043;52.184;8.690;2023-07-24T13:46:56;9.83;;;7.80;;
4055;SDS011;2043;52.184;8.690;2023-07-24T13:49:23;16.23;;;8.30;;
4055;SDS011;2043;52.184;8.690;2023-07-24T13:51:49;11.90;;;8.10;;
4055;SDS011;2043;52.184;8.690;2023-07-24T13:54:16;11.60;;;8.07;;
4055;SDS011;2043;52.184;8.690;2023-07-24T13:56:43;10.20;;;7.13;;
4055;SDS011;2043;52.184;8.690;2023-07-24T13:59:10;8.60;;;6.43;;
4055;SDS011;2043;52.184;8.690;2023-07-24T14:01:36;10.40;;;7.00;;
4055;SDS011;2043;52.184;8.690;2023-07-24T14:04:03;10.03;;;5.47;;
4055;SDS011;2043;52.184;8.690;2023-07-24T14:06:30;11.33;;;6.30;;
4055;SDS011;2043;52.184;8.690;2023-07-24T14:08:57;10.00;;;5.73;;
4055;SDS011;2043;52.184;8.690;2023-07-24T14:11:24;7.57;;;5.33;;
4055;SDS011;2043;52.184;8.690;2023-07-24T14:13:53;8.47;;;5.57;;
4055;SDS011;2043;52.184;8.690;2023-07-24T14:16:19;8.00;;;5.50;;
4055;SDS011;2043;52.184;8.690;2023-07-24T14:18:46;7.30;;;4.70;;
4055;SDS011;2043;52.184;8.690;2023-07-24T14:21:13;8.23;;;4.73;;
4055;SDS011;2043;52.184;8.690;2023-07-24T14:23:40;6.00;;;4.20;;
4055;SDS011;2043;52.184;8.690;2023-07-24T14:26:06;8.60;;;4.53;;
4055;SDS011;2043;52.184;8.690;2023-07-24T14:28:33;8.03;;;4.20;;
4055;SDS011;2043;52.184;8.690;2023-07-24T14:31:00;6.93;;;4.03;;
4055;SDS011;2043;52.184;8.690;2023-07-24T14:33:27;5.63;;;3.67;;
4055;SDS011;2043;52.184;8.690;2023-07-24T14:35:53;8.30;;;3.50;;
4055;SDS011;2043;52.184;8.690;2023-07-24T14:38:21;5.90;;;3.40;;
4055;SDS011;2043;52.184;8.690;2023-07-24T14:40:48;6.03;;;3.60;;
4055;SDS011;2043;52.184;8.690;2023-07-24T14:43:15;7.17;;;3.27;;
4055;SDS011;2043;52.184;8.690;2023-07-24T14:45:41;4.90;;;3.10;;
4055;SDS011;2043;52.184;8.690;2023-07-24T14:48:08;4.90;;;3.07;;
4055;SDS011;2043;52.184;8.690;2023-07-24T14:50:35;5.70;;;2.80;;
4055;SDS011;2043;52.184;8.690;2023-07-24T14:53:02;6.13;;;2.70;;
4055;SDS011;2043;52.184;8.690;2023-07-24T14:55:29;4.93;;;2.63;;
4055;SDS011;2043;52.184;8.690;2023-07-24T14:57:56;6.73;;;3.13;;
4055;SDS011;2043;52.184;8.690;2023-07-24T15:00:22;6.03;;;3.17;;
4055;SDS011;2043;52.184;8.690;2023-07-24T15:02:49;7.93;;;3.60;;
4055;SDS011;2043;52.184;8.690;2023-07-24T15:05:16;6.20;;;2.90;;
4055;SDS011;2043;52.184;8.690;2023-07-24T15:07:43;4.90;;;2.80;;
4055;SDS011;2043;52.184;8.690;2023-07-24T15:10:09;4.63;;;3.27;;
4055;SDS011;2043;52.184;8.690;2023-07-24T15:12:37;5.97;;;3.03;;
4055;SDS011;2043;52.184;8.690;2023-07-24T15:15:04;4.93;;;2.97;;
4055;SDS011;2043;52.184;8.690;2023-07-24T15:17:32;5.27;;;2.90;;